Allen, TX

7:21 AM CDT on September 30, 2014 (GMT -0500)
Parker Lake Estates | Change Station
CLOSE
Current Station
Personal Weather Station
Location: Allen, TX
Elevation: 640 ft
Nearby Weather Stations

Elev 640 ft 33.08 °N, 96.62 °W | Updated 7 minutes ago

Partly Cloudy
Partly Cloudy
65.3 °F
Feels Like 65.3 °F
N
0.0
Wind Variable Wind from ENE
Gusts 0.0 mph

Today
High -- | Low -- °F
--% Chance of Precip.
Yesterday
High -- | Low -- °F
Precip. -- in
7:20 AM 7:12 PM
Waxing Crescent, 36% visible
Pressure 29.91 in
Visibility 10.0 miles
Clouds Clear
Dew Point 63 °F
Humidity 92%
Rainfall 0.00 in
Snow Depth Not available.
UV 0 out of 12
Pollen 8.90 out of 12
Ozone Good
PM2.5 Good
Flu Activity Not available.
METAR KTKI 301153Z 00000KT 10SM CLR 17/16 A2991 RMK AO2 SLP126 T01720156 10200 20172 53001

More Conditions Fewer Conditions

Pressure 29.91 in
Visibility 10.0 miles
Clouds Clear
Dew Point 63 °F
Humidity 92%
Rainfall 0.00 in
Snow Depth Not available.
UV 0 out of 12
Pollen 8.90 out of 12
Ozone Good
PM2.5 Good
Flu Activity Not available.
METAR KTKI 301153Z 00000KT 10SM CLR 17/16 A2991 RMK AO2 SLP126 T01720156 10200 20172 53001

More Conditions Fewer Conditions

10-Day Weather Forecast

Almanac

Astronomy

Sep. 30, 2014 Rise Set
Actual Time 7:20 AM CDT 7:12 PM CDT
Civil Twilight 6:55 AM CDT 7:36 PM CDT
Nautical Twilight 6:26 AM CDT 8:05 PM CDT
Astronomical Twilight 5:57 AM CDT 8:34 PM CDT
Moon 1:15 PM CDT 11:57 PM CDT
Length of Visible Light 12h 41m
Length of Day
11h 52m
Tomorrow will be 2m 1s shorter.
Waxing Crescent, 36% of the Moon is Illuminated
Today
Waxing Crescent
Oct 1
First Quarter
Oct 8
Full
Oct 15
Last Quarter
Oct 23
New

Today's Extremes

State Highs State Lows

Community

WunderPhotos

Upload Photos

1,757,621 photos uploaded!

Nearby

Air Quality

  Air Quality AQ Index Pollutant
Yesterday Moderate
OZONE
Yesterday Good
PM2.5
Current Good
PM2.5
Current Good
OZONE
Tuesday Moderate
OZONE
Tuesday Good
PM10
Wednesday Moderate
OZONE
Wednesday Good
PM10
Thursday Good
OZONE
Thursday Good
PM10

Snow Depth

Station Depth Elevation
No new snow has been reported.

Earthquake Activity

City Distance Mag. Time & Date
No recent earthquake activity has been reported nearby.
Minimum magnitude displayed is 2.5.

Coastal Water Temperatures

Place Temperature
No Stations Reporting

Nearby Weather Stations